Time;durP1;ratioP1;P1;durP2;ratioP2;P2;SDS_P1;SDS_P2;PMS_P1;PMS_P2;Temp;Humidity;BMP_temperature;BMP_pressure;BME280_temperature;BME280_humidity;BME280_pressure;Samples;Min_cycle;Max_cycle;Signal;HPM_P1;HPM_P2
2022/09/04 00:02:56;;;;;;;0.00;0.00;;;;;;;;;;5138446;27;20558;-83
2022/09/04 00:05:46;;;;;;;0.00;0.00;;;;;;;;;;5108213;27;20487;-84
2022/09/04 00:08:21;;;;;;;0.15;0.15;;;;;;;;;;5138420;27;20058;-86
2022/09/04 00:10:59;;;;;;;0.80;0.70;;;;;;;;;;5120231;27;20026;-84
2022/09/04 00:13:34;;;;;;;0.00;0.00;;;;;;;;;;5120639;27;20472;-85
2022/09/04 00:16:18;;;;;;;0.03;0.03;;;;;;;;;;5134200;27;20030;-84
2022/09/04 00:19:01;;;;;;;0.10;0.10;;;;;;;;;;5117275;27;20031;-83
2022/09/04 00:21:44;;;;;;;0.05;0.05;;;;;;;;;;5135816;27;20089;-86
2022/09/04 00:24:16;;;;;;;0.85;0.85;;;;;;;;;;5139093;27;20035;-84
2022/09/04 00:27:02;;;;;;;0.00;0.00;;;;;;;;;;5139930;27;20023;-85
2022/09/04 00:29:43;;;;;;;0.00;0.00;;;;;;;;;;5136854;27;20023;-85
2022/09/04 00:32:37;;;;;;;0.20;0.20;;;;;;;;;;5120022;27;20022;-85
2022/09/04 00:35:09;;;;;;;0.32;0.32;;;;;;;;;;5119682;27;20023;-85
2022/09/04 00:37:41;;;;;;;0.00;0.00;;;;;;;;;;5136558;27;20027;-85
2022/09/04 00:40:13;;;;;;;0.10;0.10;;;;;;;;;;5133775;27;20020;-84
2022/09/04 00:43:05;;;;;;;0.00;0.00;;;;;;;;;;5135677;27;20031;-85
2022/09/04 00:45:34;;;;;;;0.00;0.00;;;;;;;;;;5117638;27;20023;-84
2022/09/04 00:48:21;;;;;;;0.00;0.00;;;;;;;;;;5136711;27;20428;-84
2022/09/04 00:51:20;;;;;;;0.13;0.13;;;;;;;;;;5136902;27;20023;-85
2022/09/04 00:54:03;;;;;;;0.00;0.00;;;;;;;;;;5138570;27;20023;-84
2022/09/04 00:56:52;;;;;;;0.00;0.00;;;;;;;;;;5138656;27;20051;-84
2022/09/04 00:59:29;;;;;;;0.20;0.20;;;;;;;;;;5119044;27;20079;-84
2022/09/04 01:02:07;;;;;;;0.00;0.00;;;;;;;;;;5117701;27;20386;-84
2022/09/04 01:04:42;;;;;;;1.73;1.05;;;;;;;;;;5136365;27;20062;-83
2022/09/04 01:07:36;;;;;;;0.00;0.00;;;;;;;;;;5115609;27;20022;-85
2022/09/04 01:10:29;;;;;;;0.30;0.30;;;;;;;;;;5129590;27;20038;-84
2022/09/04 01:13:17;;;;;;;0.35;0.35;;;;;;;;;;5130919;27;20098;-85
2022/09/04 01:15:45;;;;;;;0.00;0.00;;;;;;;;;;5132118;27;20046;-84
2022/09/04 01:18:29;;;;;;;0.22;0.10;;;;;;;;;;5116174;27;20088;-84
2022/09/04 01:21:15;;;;;;;0.00;0.00;;;;;;;;;;5133427;27;20084;-84
2022/09/04 01:24:23;;;;;;;0.10;0.10;;;;;;;;;;5134019;27;20514;-84
2022/09/04 01:27:02;;;;;;;0.55;0.55;;;;;;;;;;5115091;27;20042;-84
2022/09/04 01:29:55;;;;;;;0.22;0.22;;;;;;;;;;5115344;27;20482;-84
2022/09/04 01:32:58;;;;;;;0.00;0.00;;;;;;;;;;5133901;27;20496;-83
2022/09/04 01:36:21;;;;;;;0.00;0.00;;;;;;;;;;5147703;27;20016;-84
2022/09/04 01:38:53;;;;;;;0.00;0.00;;;;;;;;;;5033496;28;20067;-85
2022/09/04 01:41:41;;;;;;;0.00;0.00;;;;;;;;;;5049392;28;20057;-85
2022/09/04 01:44:08;;;;;;;0.00;0.00;;;;;;;;;;5113652;27;20049;-85
2022/09/04 01:47:02;;;;;;;0.00;0.00;;;;;;;;;;5129746;27;20035;-85
2022/09/04 01:49:37;;;;;;;0.00;0.00;;;;;;;;;;5134112;27;20427;-84
2022/09/04 01:52:21;;;;;;;0.20;0.20;;;;;;;;;;5133304;27;20052;-84
2022/09/04 01:55:07;;;;;;;0.10;0.10;;;;;;;;;;5112915;27;20132;-83
2022/09/04 01:57:38;;;;;;;0.00;0.00;;;;;;;;;;5134294;27;20023;-83
2022/09/04 02:00:14;;;;;;;0.20;0.20;;;;;;;;;;5115785;27;20091;-84
2022/09/04 02:02:45;;;;;;;0.25;0.25;;;;;;;;;;5133404;27;20090;-83
2022/09/04 02:05:48;;;;;;;0.22;0.22;;;;;;;;;;5115952;27;20034;-84
2022/09/04 02:08:55;;;;;;;0.00;0.00;;;;;;;;;;5134073;27;20474;-83
2022/09/04 02:11:28;;;;;;;0.20;0.17;;;;;;;;;;5132603;27;20564;-83
2022/09/04 02:14:18;;;;;;;0.30;0.30;;;;;;;;;;5115284;27;20019;-83
2022/09/04 02:16:59;;;;;;;;;;;;;;;;;;5134301;27;20033;-85
2022/09/04 02:19:27;;;;;;;0.13;0.13;;;;;;;;;;5133904;27;19911;-84
2022/09/04 02:22:01;;;;;;;0.10;0.10;;;;;;;;;;5134137;27;20053;-82
2022/09/04 02:25:02;;;;;;;0.00;0.00;;;;;;;;;;5113092;27;20023;-82
2022/09/04 02:27:34;;;;;;;0.10;0.10;;;;;;;;;;5132593;27;20027;-84
2022/09/04 02:30:07;;;;;;;0.00;0.00;;;;;;;;;;5134200;27;20474;-83
2022/09/04 02:32:56;;;;;;;0.00;0.00;;;;;;;;;;5133458;27;20023;-84
2022/09/04 02:35:29;;;;;;;0.00;0.00;;;;;;;;;;5133557;27;20075;-83
2022/09/04 02:38:24;;;;;;;0.10;0.10;;;;;;;;;;5115008;27;20023;-83
2022/09/04 02:41:25;;;;;;;0.00;0.00;;;;;;;;;;5103446;27;20038;-82
2022/09/04 02:44:27;;;;;;;0.00;0.00;;;;;;;;;;5071395;27;20146;-84
2022/09/04 02:47:03;;;;;;;0.00;0.00;;;;;;;;;;5125383;27;20394;-85
2022/09/04 02:49:41;;;;;;;0.00;0.00;;;;;;;;;;5131690;27;20027;-84
2022/09/04 02:52:12;;;;;;;0.00;0.00;;;;;;;;;;5114460;27;20043;-84
2022/09/04 02:54:45;;;;;;;0.00;0.00;;;;;;;;;;5131729;27;20034;-82
2022/09/04 02:57:39;;;;;;;0.00;0.00;;;;;;;;;;5132445;27;20109;-83
2022/09/04 03:00:15;;;;;;;0.00;0.00;;;;;;;;;;5095683;27;20039;-83
2022/09/04 03:02:45;;;;;;;0.38;0.38;;;;;;;;;;5113183;27;20083;-83
2022/09/04 03:05:19;;;;;;;0.15;0.15;;;;;;;;;;5132794;27;20039;-84
2022/09/04 03:07:50;;;;;;;0.00;0.00;;;;;;;;;;5131539;27;20130;-81
2022/09/04 03:10:35;;;;;;;0.00;0.00;;;;;;;;;;5114447;27;20019;-83
2022/09/04 03:13:03;;;;;;;0.00;0.00;;;;;;;;;;5113989;27;20027;-83
2022/09/04 03:15:53;;;;;;;0.00;0.00;;;;;;;;;;5114038;27;20379;-85
2022/09/04 03:18:47;;;;;;;0.00;0.00;;;;;;;;;;5132985;27;20494;-84
2022/09/04 03:21:21;;;;;;;0.00;0.00;;;;;;;;;;5113251;27;20035;-83
2022/09/04 03:23:53;;;;;;;0.13;0.13;;;;;;;;;;5114323;27;20477;-84
2022/09/04 03:26:43;;;;;;;0.00;0.00;;;;;;;;;;5114549;27;20442;-83
2022/09/04 03:29:50;;;;;;;0.08;0.08;;;;;;;;;;5111184;28;20028;-83
2022/09/04 03:32:51;;;;;;;0.15;0.15;;;;;;;;;;5128317;27;20394;-83
2022/09/04 03:35:25;;;;;;;0.47;0.47;;;;;;;;;;5112136;27;20034;-85
2022/09/04 03:38:07;;;;;;;0.10;0.10;;;;;;;;;;5110528;28;20058;-83
2022/09/04 03:40:41;;;;;;;0.63;0.63;;;;;;;;;;5131356;27;20064;-82
2022/09/04 03:43:25;;;;;;;0.13;0.13;;;;;;;;;;5126384;27;20085;-84
2022/09/04 03:46:04;;;;;;;0.00;0.00;;;;;;;;;;5131777;27;20101;-83
2022/09/04 03:49:04;;;;;;;0.00;0.00;;;;;;;;;;5132164;27;20031;-84
2022/09/04 03:51:59;;;;;;;3.03;2.78;;;;;;;;;;5130866;27;20043;-84
2022/09/04 03:55:02;;;;;;;0.10;0.10;;;;;;;;;;5095568;28;20035;-84
2022/09/04 03:57:57;;;;;;;0.00;0.00;;;;;;;;;;5112014;28;20151;-85
2022/09/04 04:00:23;;;;;;;0.00;0.00;;;;;;;;;;5147601;27;20035;-83
2022/09/04 04:03:11;;;;;;;0.00;0.00;;;;;;;;;;5131940;28;20115;-82
2022/09/04 04:06:18;;;;;;;0.15;0.15;;;;;;;;;;5110693;28;20027;-83
2022/09/04 04:09:10;;;;;;;0.43;0.40;;;;;;;;;;5109998;28;20479;-84
2022/09/04 04:11:53;;;;;;;0.00;0.00;;;;;;;;;;5111871;28;20019;-85
2022/09/04 04:14:41;;;;;;;0.00;0.00;;;;;;;;;;5131322;28;20030;-83
2022/09/04 04:17:46;;;;;;;0.00;0.00;;;;;;;;;;5128810;28;20019;-85
2022/09/04 04:20:44;;;;;;;0.00;0.00;;;;;;;;;;5129867;28;20027;-84
2022/09/04 04:23:16;;;;;;;0.43;0.43;;;;;;;;;;5107557;28;20062;-84
2022/09/04 04:26:07;;;;;;;0.10;0.10;;;;;;;;;;5128843;28;20030;-84
2022/09/04 04:28:58;;;;;;;0.03;0.03;;;;;;;;;;5112810;28;20467;-84
2022/09/04 04:31:38;;;;;;;0.80;0.80;;;;;;;;;;5130757;28;20096;-85
2022/09/04 04:34:38;;;;;;;0.75;0.55;;;;;;;;;;5132018;28;20128;-85
2022/09/04 04:37:14;;;;;;;0.00;0.00;;;;;;;;;;5107760;28;20758;-85
2022/09/04 04:39:43;;;;;;;0.00;0.00;;;;;;;;;;5126606;28;20499;-85
2022/09/04 04:42:28;;;;;;;0.10;0.10;;;;;;;;;;5133178;27;20502;-84
2022/09/04 04:48:11;;;;;;;0.30;0.30;;;;;;;;;;5135386;27;20042;-85
2022/09/04 04:51:10;;;;;;;0.00;0.00;;;;;;;;;;5116377;27;20042;-84
2022/09/04 04:54:21;;;;;;;0.05;0.05;;;;;;;;;;5115881;27;20035;-84
2022/09/04 04:57:03;;;;;;;0.00;0.00;;;;;;;;;;5063412;27;20121;-86
2022/09/04 04:59:38;;;;;;;0.08;0.08;;;;;;;;;;5117657;27;20068;-85
2022/09/04 05:02:09;;;;;;;0.00;0.00;;;;;;;;;;5114262;27;20034;-84
2022/09/04 05:05:01;;;;;;;0.00;0.00;;;;;;;;;;5115319;27;20027;-85
2022/09/04 05:07:42;;;;;;;0.57;0.57;;;;;;;;;;5115069;27;20028;-81
2022/09/04 05:10:16;;;;;;;0.00;0.00;;;;;;;;;;5132519;27;20471;-82
2022/09/04 05:13:03;;;;;;;1.42;0.63;;;;;;;;;;5131574;27;20467;-82
2022/09/04 05:15:39;;;;;;;0.05;0.05;;;;;;;;;;5131118;27;20019;-82
2022/09/04 05:18:34;;;;;;;0.00;0.00;;;;;;;;;;5111780;27;20027;-81
2022/09/04 05:21:15;;;;;;;0.00;0.00;;;;;;;;;;5131689;27;20038;-81
2022/09/04 05:24:03;;;;;;;0.00;0.00;;;;;;;;;;5134024;27;20042;-81
2022/09/04 05:26:34;;;;;;;0.10;0.10;;;;;;;;;;5132350;27;20030;-82
2022/09/04 05:29:14;;;;;;;0.38;0.38;;;;;;;;;;5113584;27;20019;-82
2022/09/04 05:32:19;;;;;;;0.10;0.10;;;;;;;;;;5132258;27;20027;-82
2022/09/04 05:35:09;;;;;;;0.15;0.15;;;;;;;;;;5111043;27;20035;-83
2022/09/04 05:37:49;;;;;;;0.75;0.75;;;;;;;;;;5132769;27;20027;-81
2022/09/04 05:40:29;;;;;;;0.00;0.00;;;;;;;;;;5132595;27;20019;-82
2022/09/04 05:42:55;;;;;;;0.70;0.70;;;;;;;;;;5134378;27;20372;-81
2022/09/04 05:45:32;;;;;;;0.03;0.03;;;;;;;;;;5134044;27;20023;-80
2022/09/04 05:48:39;;;;;;;0.28;0.25;;;;;;;;;;5133476;27;20031;-81
2022/09/04 05:51:38;;;;;;;0.93;0.65;;;;;;;;;;5098769;27;20031;-82
2022/09/04 05:54:06;;;;;;;0.00;0.00;;;;;;;;;;5131519;27;20016;-79
2022/09/04 05:57:04;;;;;;;0.10;0.10;;;;;;;;;;5115765;27;20510;-82
2022/09/04 05:59:41;;;;;;;0.93;0.93;;;;;;;;;;5072985;27;20039;-81
2022/09/04 06:02:44;;;;;;;0.60;0.60;;;;;;;;;;5133553;27;20039;-81
2022/09/04 06:05:44;;;;;;;0.20;0.20;;;;;;;;;;5131824;27;20114;-80
2022/09/04 06:08:16;;;;;;;0.20;0.20;;;;;;;;;;5075603;27;20503;-80
2022/09/04 06:10:44;;;;;;;0.65;0.65;;;;;;;;;;5133193;27;20103;-81
2022/09/04 06:13:27;;;;;;;0.80;0.52;;;;;;;;;;5132295;27;20344;-81
2022/09/04 06:16:08;;;;;;;0.10;0.10;;;;;;;;;;5132950;27;20362;-81
2022/09/04 06:18:39;;;;;;;0.43;0.43;;;;;;;;;;5131667;27;20019;-81
2022/09/04 06:21:20;;;;;;;0.28;0.20;;;;;;;;;;5132820;27;20031;-83
2022/09/04 06:23:57;;;;;;;0.47;0.47;;;;;;;;;;5131171;27;20035;-83
2022/09/04 06:26:26;;;;;;;0.00;0.00;;;;;;;;;;5114043;27;20031;-81
2022/09/04 06:29:00;;;;;;;0.10;0.10;;;;;;;;;;5132043;27;20062;-82
2022/09/04 06:31:25;;;;;;;0.22;0.22;;;;;;;;;;5132855;27;20027;-83
2022/09/04 06:33:55;;;;;;;0.88;0.88;;;;;;;;;;5112328;27;20396;-80
2022/09/04 06:36:47;;;;;;;0.43;0.40;;;;;;;;;;5132974;27;20096;-82
2022/09/04 06:39:49;;;;;;;0.03;0.03;;;;;;;;;;5131592;27;20031;-82
2022/09/04 06:42:30;;;;;;;0.35;0.35;;;;;;;;;;5131040;27;20035;-84
2022/09/04 06:45:21;;;;;;;0.00;0.00;;;;;;;;;;5132423;27;20144;-84
2022/09/04 06:48:02;;;;;;;0.00;0.00;;;;;;;;;;5112969;27;20463;-83
2022/09/04 06:50:57;;;;;;;0.20;0.20;;;;;;;;;;5110010;27;20015;-83
2022/09/04 06:54:18;;;;;;;0.52;0.52;;;;;;;;;;5133026;27;20075;-84
2022/09/04 06:57:08;;;;;;;0.10;0.10;;;;;;;;;;5047592;28;20044;-83
2022/09/04 07:00:00;;;;;;;1.98;0.82;;;;;;;;;;5110824;27;20034;-84
2022/09/04 07:02:35;;;;;;;0.47;0.47;;;;;;;;;;5133302;27;20076;-83
2022/09/04 07:05:23;;;;;;;0.22;0.22;;;;;;;;;;5129754;27;20027;-82
2022/09/04 07:07:54;;;;;;;0.30;0.30;;;;;;;;;;5115002;27;20031;-82
2022/09/04 07:10:28;;;;;;;0.10;0.10;;;;;;;;;;5133121;27;20107;-81
2022/09/04 07:13:27;;;;;;;0.43;0.43;;;;;;;;;;5133919;27;20428;-85
2022/09/04 07:16:14;;;;;;;0.00;0.00;;;;;;;;;;5133617;27;20100;-83
2022/09/04 07:19:02;;;;;;;0.35;0.35;;;;;;;;;;5112656;27;20015;-82
2022/09/04 07:21:41;;;;;;;0.20;0.20;;;;;;;;;;5134011;27;20035;-83
2022/09/04 07:24:25;;;;;;;0.43;0.37;;;;;;;;;;5131441;27;20556;-81
2022/09/04 07:27:19;;;;;;;2.50;1.33;;;;;;;;;;5130526;27;20460;-83
2022/09/04 07:30:04;;;;;;;0.15;0.10;;;;;;;;;;5133425;27;20026;-84
2022/09/04 07:32:35;;;;;;;0.70;0.70;;;;;;;;;;5112277;27;20050;-84
2022/09/04 07:35:20;;;;;;;0.00;0.00;;;;;;;;;;5109911;27;20032;-82
2022/09/04 07:38:02;;;;;;;0.28;0.28;;;;;;;;;;5128206;27;20420;-83
2022/09/04 07:40:52;;;;;;;0.47;0.30;;;;;;;;;;5130248;27;20023;-82
2022/09/04 07:43:29;;;;;;;0.00;0.00;;;;;;;;;;5111643;27;20097;-82
2022/09/04 07:46:21;;;;;;;0.10;0.10;;;;;;;;;;5126950;27;20035;-83
2022/09/04 07:49:10;;;;;;;0.10;0.10;;;;;;;;;;5121778;27;20348;-80
2022/09/04 07:51:44;;;;;;;0.73;0.73;;;;;;;;;;5113602;27;20034;-82
2022/09/04 07:54:34;;;;;;;0.63;0.63;;;;;;;;;;5128646;28;20430;-81
2022/09/04 07:57:22;;;;;;;0.55;0.55;;;;;;;;;;5124799;28;20084;-80
2022/09/04 08:00:03;;;;;;;0.70;0.60;;;;;;;;;;5128290;28;20466;-87
2022/09/04 08:02:55;;;;;;;0.60;0.30;;;;;;;;;;5130212;28;20386;-84
2022/09/04 08:05:23;;;;;;;0.30;0.30;;;;;;;;;;5130419;28;20076;-85
2022/09/04 08:08:15;;;;;;;1.58;0.38;;;;;;;;;;5126587;28;20055;-87
2022/09/04 08:11:06;;;;;;;0.32;0.32;;;;;;;;;;5113836;28;20501;-85
2022/09/04 08:13:53;;;;;;;0.32;0.32;;;;;;;;;;5110916;28;20055;-85
2022/09/04 08:17:24;;;;;;;0.47;0.47;;;;;;;;;;5135072;27;20022;-84
2022/09/04 08:20:34;;;;;;;0.10;0.10;;;;;;;;;;5107872;27;20038;-84
2022/09/04 08:23:23;;;;;;;0.93;0.55;;;;;;;;;;5134931;27;20495;-85
2022/09/04 08:25:48;;;;;;;0.10;0.05;;;;;;;;;;5132329;27;20018;-85
2022/09/04 08:28:35;;;;;;;0.68;0.68;;;;;;;;;;5136212;27;20157;-85
2022/09/04 08:31:31;;;;;;;0.25;0.25;;;;;;;;;;5114885;27;20027;-83
2022/09/04 08:34:12;;;;;;;0.57;0.32;;;;;;;;;;5107816;27;20042;-84
2022/09/04 08:36:41;;;;;;;0.20;0.20;;;;;;;;;;5112362;27;20026;-85
2022/09/04 08:39:14;;;;;;;0.10;0.10;;;;;;;;;;5135125;27;20030;-83
2022/09/04 08:42:10;;;;;;;0.35;0.30;;;;;;;;;;5136196;27;20023;-83
2022/09/04 08:45:27;;;;;;;0.00;0.00;;;;;;;;;;5133474;27;20385;-85
2022/09/04 08:48:25;;;;;;;0.25;0.25;;;;;;;;;;5093460;27;20479;-83
2022/09/04 08:51:17;;;;;;;0.00;0.00;;;;;;;;;;5135576;27;20018;-85
2022/09/04 08:54:13;;;;;;;0.63;0.63;;;;;;;;;;5115403;27;20034;-83
2022/09/04 08:57:04;;;;;;;0.35;0.35;;;;;;;;;;5129521;27;20399;-84
2022/09/04 08:59:35;;;;;;;0.03;0.03;;;;;;;;;;5130424;27;20402;-84
2022/09/04 09:02:03;;;;;;;2.08;0.10;;;;;;;;;;5125501;27;20026;-84
2022/09/04 09:04:53;;;;;;;0.43;0.43;;;;;;;;;;5115345;27;20041;-84
2022/09/04 09:07:22;;;;;;;0.00;0.00;;;;;;;;;;5130738;27;20387;-84
2022/09/04 09:09:53;;;;;;;0.75;0.52;;;;;;;;;;5134661;27;20419;-84
2022/09/04 09:12:51;;;;;;;0.55;0.55;;;;;;;;;;5114176;27;20019;-83
2022/09/04 09:15:48;;;;;;;0.20;0.20;;;;;;;;;;5101172;27;20031;-83
2022/09/04 09:18:16;;;;;;;0.10;0.10;;;;;;;;;;5134687;27;20564;-83
2022/09/04 09:20:57;;;;;;;0.25;0.25;;;;;;;;;;5133771;27;20024;-83
2022/09/04 09:23:43;;;;;;;0.55;0.55;;;;;;;;;;5131824;27;20042;-83
2022/09/04 09:26:32;;;;;;;0.73;0.70;;;;;;;;;;5135311;27;20038;-83
2022/09/04 09:29:16;;;;;;;0.65;0.55;;;;;;;;;;5131358;27;20470;-82
2022/09/04 09:31:50;;;;;;;0.75;0.75;;;;;;;;;;5132511;27;20030;-83
2022/09/04 09:34:37;;;;;;;2.45;2.35;;;;;;;;;;5134498;27;20022;-83
2022/09/04 09:37:11;;;;;;;1.20;1.20;;;;;;;;;;5133729;27;20132;-83
2022/09/04 09:39:55;;;;;;;0.08;0.08;;;;;;;;;;5131847;27;20027;-84
2022/09/04 09:42:48;;;;;;;0.10;0.10;;;;;;;;;;5133255;27;20023;-85
2022/09/04 09:45:38;;;;;;;0.10;0.10;;;;;;;;;;5131077;27;20066;-82
2022/09/04 09:48:12;;;;;;;0.00;0.00;;;;;;;;;;5131682;27;20079;-82
2022/09/04 09:50:47;;;;;;;0.30;0.30;;;;;;;;;;5135503;27;20023;-82
2022/09/04 09:53:30;;;;;;;0.10;0.10;;;;;;;;;;5135258;27;20482;-81
2022/09/04 09:56:37;;;;;;;0.85;0.85;;;;;;;;;;5132055;27;20055;-82
2022/09/04 09:59:42;;;;;;;0.65;0.65;;;;;;;;;;5133892;27;20050;-81
2022/09/04 10:02:26;;;;;;;0.55;0.55;;;;;;;;;;5115651;27;20056;-81
2022/09/04 10:05:29;;;;;;;0.65;0.63;;;;;;;;;;5115782;27;20019;-84
2022/09/04 10:08:19;;;;;;;0.30;0.30;;;;;;;;;;5134700;27;20034;-82
2022/09/04 10:11:22;;;;;;;0.05;0.05;;;;;;;;;;5134058;27;20030;-82
2022/09/04 10:14:15;;;;;;;0.75;0.75;;;;;;;;;;5133921;27;20076;-81
2022/09/04 10:16:59;;;;;;;0.05;0.05;;;;;;;;;;5132446;27;20486;-81
2022/09/04 10:20:00;;;;;;;0.47;0.47;;;;;;;;;;5134723;27;20068;-80
2022/09/04 10:22:37;;;;;;;0.00;0.00;;;;;;;;;;5101159;27;20501;-81
2022/09/04 10:25:58;;;;;;;0.00;0.00;;;;;;;;;;5134723;27;20030;-83
2022/09/04 10:28:44;;;;;;;0.40;0.40;;;;;;;;;;5130534;27;20019;-81
2022/09/04 10:31:25;;;;;;;0.17;0.17;;;;;;;;;;5129482;27;20019;-81
2022/09/04 10:34:29;;;;;;;2.33;1.33;;;;;;;;;;5130740;27;20102;-82
2022/09/04 10:37:20;;;;;;;0.10;0.10;;;;;;;;;;5097545;27;20045;-82
2022/09/04 10:40:34;;;;;;;0.20;0.20;;;;;;;;;;5130179;27;20027;-82
2022/09/04 10:43:31;;;;;;;0.90;0.65;;;;;;;;;;5149127;27;20031;-82
2022/09/04 10:46:34;;;;;;;0.10;0.10;;;;;;;;;;5132240;27;20530;-81
2022/09/04 10:49:16;;;;;;;0.10;0.10;;;;;;;;;;5113916;27;20425;-81
2022/09/04 10:51:51;;;;;;;0.00;0.00;;;;;;;;;;5132691;27;20019;-82
2022/09/04 10:54:43;;;;;;;0.73;0.20;;;;;;;;;;5133888;27;20049;-82
2022/09/04 10:57:27;;;;;;;0.30;0.20;;;;;;;;;;5131424;27;20031;-82
2022/09/04 10:59:56;;;;;;;0.20;0.20;;;;;;;;;;5109676;27;20370;-82
2022/09/04 11:02:39;;;;;;;0.88;0.77;;;;;;;;;;5126302;27;20027;-82
2022/09/04 11:05:07;;;;;;;2.20;1.08;;;;;;;;;;5126279;27;20084;-81
2022/09/04 11:08:12;;;;;;;0.40;0.30;;;;;;;;;;5130376;27;20029;-82
2022/09/04 11:10:56;;;;;;;0.00;0.00;;;;;;;;;;5113865;27;20349;-82
2022/09/04 11:13:22;;;;;;;0.10;0.08;;;;;;;;;;5133409;27;20467;-82
2022/09/04 11:16:03;;;;;;;1.95;0.85;;;;;;;;;;5133194;27;20067;-80
2022/09/04 11:18:53;;;;;;;0.57;0.57;;;;;;;;;;5132923;27;20042;-85
2022/09/04 11:21:49;;;;;;;0.08;0.08;;;;;;;;;;5132822;27;20039;-82
2022/09/04 11:24:40;;;;;;;0.10;0.10;;;;;;;;;;5127811;27;20026;-79
2022/09/04 11:27:30;;;;;;;0.08;0.08;;;;;;;;;;5114452;27;20114;-82
2022/09/04 11:30:10;;;;;;;0.00;0.00;;;;;;;;;;5132079;27;20027;-81
2022/09/04 11:32:56;;;;;;;0.10;0.10;;;;;;;;;;5132418;27;20019;-80
2022/09/04 11:35:58;;;;;;;1.13;0.52;;;;;;;;;;5128673;27;20035;-80
2022/09/04 11:38:27;;;;;;;0.20;0.15;;;;;;;;;;5132463;27;20023;-81
2022/09/04 11:40:54;;;;;;;0.57;0.22;;;;;;;;;;5132019;27;20098;-81
2022/09/04 11:43:35;;;;;;;0.50;0.47;;;;;;;;;;5112491;27;20487;-82
2022/09/04 11:46:16;;;;;;;1.55;1.20;;;;;;;;;;5130451;27;20055;-81
2022/09/04 11:49:06;;;;;;;0.00;0.00;;;;;;;;;;5129118;27;20034;-79
2022/09/04 11:51:39;;;;;;;0.57;0.57;;;;;;;;;;5128514;27;20019;-82
2022/09/04 11:54:26;;;;;;;0.08;0.08;;;;;;;;;;5131434;27;20099;-82
2022/09/04 11:56:54;;;;;;;0.20;0.20;;;;;;;;;;5089637;28;20115;-80
2022/09/04 11:59:31;;;;;;;0.30;0.30;;;;;;;;;;5086384;28;20078;-80
2022/09/04 12:02:15;;;;;;;0.30;0.30;;;;;;;;;;5085937;28;20035;-83
2022/09/04 12:05:00;;;;;;;0.55;0.55;;;;;;;;;;5089948;28;20115;-82
2022/09/04 12:08:03;;;;;;;0.43;0.43;;;;;;;;;;5088909;28;20074;-80
2022/09/04 12:10:58;;;;;;;0.38;0.38;;;;;;;;;;5089965;28;20372;-79
2022/09/04 12:13:56;;;;;;;0.30;0.30;;;;;;;;;;5090078;28;20472;-81
2022/09/04 12:16:33;;;;;;;1.27;0.52;;;;;;;;;;5088742;28;20052;-81
2022/09/04 12:19:38;;;;;;;0.75;0.57;;;;;;;;;;5089505;28;20511;-81
2022/09/04 12:22:40;;;;;;;0.00;0.00;;;;;;;;;;5088852;28;20119;-80
2022/09/04 12:25:22;;;;;;;0.35;0.35;;;;;;;;;;5079989;28;20512;-80
2022/09/04 12:28:05;;;;;;;0.10;0.10;;;;;;;;;;5089394;28;20016;-82
2022/09/04 12:30:48;;;;;;;0.10;0.10;;;;;;;;;;5084410;28;20111;-80
2022/09/04 12:33:34;;;;;;;0.00;0.00;;;;;;;;;;5087052;28;20058;-83
2022/09/04 12:36:23;;;;;;;0.10;0.10;;;;;;;;;;5086503;28;20130;-81
2022/09/04 12:39:07;;;;;;;;;;;;;;;;;;5089779;28;20047;-81
2022/09/04 12:41:33;;;;;;;1.10;0.63;;;;;;;;;;5089104;28;20388;-81
2022/09/04 12:44:14;;;;;;;0.10;0.10;;;;;;;;;;5087137;28;20084;-82
2022/09/04 12:47:15;;;;;;;0.03;0.03;;;;;;;;;;5089532;28;20031;-80
2022/09/04 12:50:21;;;;;;;0.40;0.40;;;;;;;;;;5091062;28;20024;-80
2022/09/04 12:52:56;;;;;;;0.20;0.20;;;;;;;;;;5089054;28;20077;-80
2022/09/04 12:55:40;;;;;;;0.03;0.03;;;;;;;;;;5106432;28;20043;-82
2022/09/04 12:58:30;;;;;;;0.00;0.00;;;;;;;;;;5131925;28;20484;-82
2022/09/04 13:01:14;;;;;;;0.10;0.10;;;;;;;;;;5112968;28;20129;-81
2022/09/04 13:03:42;;;;;;;0.20;0.20;;;;;;;;;;5133336;27;20047;-81
2022/09/04 13:06:22;;;;;;;0.08;0.08;;;;;;;;;;5116866;27;20047;-80
2022/09/04 13:08:55;;;;;;;0.45;0.45;;;;;;;;;;5117566;27;20019;-80
2022/09/04 13:11:45;;;;;;;0.03;0.03;;;;;;;;;;5134425;27;20030;-81
2022/09/04 13:14:37;;;;;;;0.77;0.77;;;;;;;;;;5116764;27;20031;-81
2022/09/04 13:17:16;;;;;;;0.22;0.05;;;;;;;;;;5131263;27;20031;-82
2022/09/04 13:20:07;;;;;;;0.27;0.27;;;;;;;;;;5132273;27;20472;-82
2022/09/04 13:23:11;;;;;;;0.43;0.43;;;;;;;;;;5134898;27;20030;-83
2022/09/04 13:26:28;;;;;;;0.00;0.00;;;;;;;;;;5050734;28;20497;-81
2022/09/04 13:29:15;;;;;;;0.00;0.00;;;;;;;;;;5018645;28;20539;-82
2022/09/04 13:31:59;;;;;;;1.08;0.95;;;;;;;;;;5108803;27;20103;-80
2022/09/04 13:34:43;;;;;;;0.10;0.10;;;;;;;;;;5134826;27;20019;-81
2022/09/04 13:37:25;;;;;;;3.10;1.60;;;;;;;;;;5116195;27;20036;-80
2022/09/04 13:39:59;;;;;;;2.05;1.90;;;;;;;;;;5132711;27;20050;-81
2022/09/04 13:42:46;;;;;;;0.20;0.20;;;;;;;;;;5115945;27;20119;-79
2022/09/04 13:45:14;;;;;;;0.35;0.35;;;;;;;;;;5133939;27;20117;-80
2022/09/04 13:48:03;;;;;;;0.25;0.25;;;;;;;;;;5130889;27;20026;-81
2022/09/04 13:50:36;;;;;;;0.20;0.20;;;;;;;;;;5134527;27;20383;-81
2022/09/04 13:53:15;;;;;;;0.40;0.40;;;;;;;;;;5134747;27;20368;-80
2022/09/04 13:55:46;;;;;;;;;;;;;;;;;;5133999;27;20035;-80
2022/09/04 13:58:20;;;;;;;0.90;0.90;;;;;;;;;;5116351;27;19912;-80
2022/09/04 14:00:50;;;;;;;1.10;0.93;;;;;;;;;;5134280;27;20077;-80
2022/09/04 14:03:29;;;;;;;0.52;0.52;;;;;;;;;;5115896;27;20400;-81
2022/09/04 14:05:56;;;;;;;0.20;0.20;;;;;;;;;;5131161;27;20025;-80
2022/09/04 14:08:22;;;;;;;0.17;0.17;;;;;;;;;;5135138;27;20023;-79
2022/09/04 14:11:15;;;;;;;0.50;0.50;;;;;;;;;;5134681;27;20030;-81
2022/09/04 14:13:50;;;;;;;0.35;0.35;;;;;;;;;;5133861;27;20079;-81
2022/09/04 14:16:17;;;;;;;0.20;0.20;;;;;;;;;;5134252;27;20360;-80
2022/09/04 14:19:01;;;;;;;0.30;0.30;;;;;;;;;;5115557;27;20043;-82
2022/09/04 14:21:48;;;;;;;0.10;0.10;;;;;;;;;;5132173;27;20772;-80
2022/09/04 14:24:23;;;;;;;0.10;0.10;;;;;;;;;;5134100;27;20033;-80
2022/09/04 14:26:56;;;;;;;0.05;0.05;;;;;;;;;;5132125;27;20031;-80
2022/09/04 14:29:35;;;;;;;0.38;0.32;;;;;;;;;;5133931;27;20091;-80
2022/09/04 14:32:22;;;;;;;0.10;0.10;;;;;;;;;;5114623;27;20036;-80
2022/09/04 14:35:07;;;;;;;0.15;0.15;;;;;;;;;;5111599;27;20415;-80
2022/09/04 14:37:58;;;;;;;0.47;0.47;;;;;;;;;;5114911;27;20443;-82
2022/09/04 14:40:32;;;;;;;0.95;0.57;;;;;;;;;;5112083;27;20051;-80
2022/09/04 14:43:21;;;;;;;0.75;0.70;;;;;;;;;;5133370;27;20058;-80
2022/09/04 14:45:50;;;;;;;0.50;0.50;;;;;;;;;;5133584;27;20023;-82
2022/09/04 14:48:16;;;;;;;;;;;;;;;;;;5133273;27;20023;-82
2022/09/04 14:50:49;;;;;;;0.65;0.65;;;;;;;;;;5148108;27;19934;-81
2022/09/04 14:53:27;;;;;;;0.00;0.00;;;;;;;;;;5133745;27;20054;-80
2022/09/04 14:56:04;;;;;;;0.10;0.10;;;;;;;;;;5133086;27;20454;-81
2022/09/04 14:58:52;;;;;;;0.00;0.00;;;;;;;;;;5115162;27;20076;-81
2022/09/04 15:01:23;;;;;;;0.20;0.10;;;;;;;;;;5114853;27;20027;-80
2022/09/04 15:04:12;;;;;;;0.10;0.10;;;;;;;;;;5130306;27;20106;-81
2022/09/04 15:06:46;;;;;;;0.10;0.10;;;;;;;;;;5133441;27;20053;-80
2022/09/04 15:09:27;;;;;;;0.15;0.10;;;;;;;;;;5132778;27;20776;-81
2022/09/04 15:11:54;;;;;;;0.10;0.10;;;;;;;;;;5132969;27;20018;-80
2022/09/04 15:14:31;;;;;;;0.35;0.35;;;;;;;;;;5133039;27;20067;-79
2022/09/04 15:17:05;;;;;;;0.22;0.22;;;;;;;;;;5132749;27;20103;-82
2022/09/04 15:19:39;;;;;;;0.93;0.93;;;;;;;;;;5130111;27;20031;-81
2022/09/04 15:22:11;;;;;;;0.20;0.20;;;;;;;;;;5132145;27;20027;-80
2022/09/04 15:24:42;;;;;;;0.80;0.80;;;;;;;;;;5114029;28;20613;-79
2022/09/04 15:27:18;;;;;;;0.75;0.75;;;;;;;;;;5131174;27;20050;-80
2022/09/04 15:29:53;;;;;;;0.20;0.20;;;;;;;;;;5130788;27;20029;-80
2022/09/04 15:32:35;;;;;;;0.17;0.13;;;;;;;;;;5132339;27;20124;-80
2022/09/04 15:35:19;;;;;;;0.00;0.00;;;;;;;;;;5130111;27;20102;-80
2022/09/04 15:37:48;;;;;;;0.17;0.17;;;;;;;;;;5129666;27;20478;-81
2022/09/04 15:40:23;;;;;;;0.00;0.00;;;;;;;;;;5113732;27;20037;-80
2022/09/04 15:43:06;;;;;;;0.00;0.00;;;;;;;;;;5131191;27;20026;-80
2022/09/04 15:45:45;;;;;;;0.15;0.15;;;;;;;;;;5132236;27;20432;-79
2022/09/04 15:48:17;;;;;;;0.00;0.00;;;;;;;;;;5132114;27;20420;-80
2022/09/04 15:51:02;;;;;;;0.00;0.00;;;;;;;;;;5130839;27;20467;-79
2022/09/04 15:53:45;;;;;;;0.45;0.45;;;;;;;;;;5131923;27;20042;-80
2022/09/04 15:56:19;;;;;;;0.98;0.80;;;;;;;;;;5130205;27;20567;-81
2022/09/04 15:58:57;;;;;;;2.78;2.58;;;;;;;;;;5132036;28;20083;-82
2022/09/04 16:01:27;;;;;;;0.47;0.47;;;;;;;;;;5132622;28;20027;-80
2022/09/04 16:04:11;;;;;;;0.70;0.65;;;;;;;;;;5131010;28;20031;-79
2022/09/04 16:06:53;;;;;;;0.00;0.00;;;;;;;;;;5106597;28;20034;-82
2022/09/04 16:09:21;;;;;;;0.00;0.00;;;;;;;;;;5131280;28;20072;-80
2022/09/04 16:11:58;;;;;;;0.00;0.00;;;;;;;;;;5131024;28;20076;-81
2022/09/04 16:14:32;;;;;;;0.00;0.00;;;;;;;;;;5130904;28;20030;-81
2022/09/04 16:17:04;;;;;;;0.00;0.00;;;;;;;;;;5131379;28;20808;-81
2022/09/04 16:19:44;;;;;;;0.00;0.00;;;;;;;;;;5130183;28;20413;-80
2022/09/04 16:22:21;;;;;;;0.85;0.65;;;;;;;;;;5130534;28;20388;-84
2022/09/04 16:24:52;;;;;;;0.35;0.35;;;;;;;;;;5129329;28;20023;-85
2022/09/04 16:27:21;;;;;;;0.10;0.10;;;;;;;;;;5114513;28;20023;-85